Time;durP1;ratioP1;P1;durP2;ratioP2;P2;SDS_P1;SDS_P2;PMS_P1;PMS_P2;Temp;Humidity;BMP_temperature;BMP_pressure;BME280_temperature;BME280_humidity;BME280_pressure;Samples;Min_cycle;Max_cycle;Signal;HPM_P1;HPM_P2
2023/05/04 00:01:45;;;;;;;;;;;;;;;12.66;nan;101036.00;5053872;28;20431;-81
2023/05/04 00:04:10;;;;;;;;;;;;;;;12.68;nan;101029.56;5050052;28;19917;-81
2023/05/04 00:06:35;;;;;;;;;;;;;;;12.67;nan;101022.56;5053714;28;19933;-81
2023/05/04 00:09:00;;;;;;;;;;;;;;;12.65;nan;101023.72;5051893;28;19927;-81
2023/05/04 00:11:25;;;;;;;;;;;;;;;12.60;nan;101018.03;5046864;28;19921;-80
2023/05/04 00:13:51;;;;;;;;;;;;;;;12.58;nan;101022.66;5053930;28;19920;-81
2023/05/04 00:16:16;;;;;;;;;;;;;;;12.59;nan;101013.72;5036110;28;19921;-81
2023/05/04 00:18:41;;;;;;;;;;;;;;;12.63;nan;101007.09;5047680;28;20324;-81
2023/05/04 00:21:07;;;;;;;;;;;;;;;12.65;nan;101005.13;5055132;28;19978;-81
2023/05/04 00:23:32;;;;;;;;;;;;;;;12.67;nan;101004.00;5036017;28;20284;-81
2023/05/04 00:25:57;;;;;;;;;;;;;;;12.64;nan;100999.00;5037424;28;19921;-81
2023/05/04 00:28:23;;;;;;;;;;;;;;;12.64;nan;100996.34;5043118;28;20453;-81
2023/05/04 00:30:48;;;;;;;;;;;;;;;12.66;nan;100997.03;5037580;28;19959;-81
2023/05/04 00:33:13;;;;;;;;;;;;;;;12.65;nan;100994.53;5054841;28;19940;-81
2023/05/04 00:35:39;;;;;;;;;;;;;;;12.62;nan;100986.88;5033767;28;19928;-81
2023/05/04 00:38:04;;;;;;;;;;;;;;;12.56;nan;100988.34;5034672;28;20439;-81
2023/05/04 00:40:29;;;;;;;;;;;;;;;12.60;nan;100989.69;5046200;28;20549;-81
2023/05/04 00:42:54;;;;;;;;;;;;;;;12.55;nan;100984.00;5053333;28;19921;-80
2023/05/04 00:45:20;;;;;;;;;;;;;;;12.45;nan;100984.09;5054949;28;19966;-81
2023/05/04 00:47:45;;;;;;;;;;;;;;;12.46;nan;100983.09;5054983;28;19917;-81
2023/05/04 00:50:11;;;;;;;;;;;;;;;12.47;nan;100989.25;5023710;28;19943;-81
2023/05/04 00:52:37;;;;;;;;;;;;;;;12.43;nan;100986.06;5053986;28;19927;-81
2023/05/04 00:55:02;;;;;;;;;;;;;;;12.35;nan;100978.03;5050523;28;19916;-81
2023/05/04 00:57:27;;;;;;;;;;;;;;;12.21;nan;100983.88;5054490;28;19956;-81
2023/05/04 00:59:53;;;;;;;;;;;;;;;12.11;nan;100990.09;5054994;28;19916;-82
2023/05/04 01:02:19;;;;;;;;;;;;;;;12.07;nan;100994.00;5045013;28;19929;-81
2023/05/04 01:04:44;;;;;;;;;;;;;;;11.97;nan;100993.25;5035490;28;19924;-81
2023/05/04 01:07:25;;;;;;;;;;;;;;;11.86;nan;100994.25;5050483;28;20304;-80
2023/05/04 01:09:58;;;;;;;;;;;;;;;11.69;nan;100989.75;5054746;28;19932;-80
2023/05/04 01:12:23;;;;;;;;;;;;;;;11.61;nan;100994.97;5023686;28;20443;-81
2023/05/04 01:14:50;;;;;;;;;;;;;;;11.45;nan;100998.22;5055159;28;19925;-81
2023/05/04 01:17:15;;;;;;;;;;;;;;;11.39;nan;100996.16;5036095;28;19957;-81
2023/05/04 01:19:40;;;;;;;;;;;;;;;11.33;nan;100992.28;5051739;28;19967;-81
2023/05/04 01:22:05;;;;;;;;;;;;;;;11.25;nan;100994.84;5047790;28;20480;-80
2023/05/04 01:24:31;;;;;;;;;;;;;;;11.24;nan;100998.44;5051624;28;19925;-81
2023/05/04 01:27:01;;;;;;;;;;;;;;;11.20;nan;100999.69;5031045;28;19931;-82
2023/05/04 01:29:30;;;;;;;;;;;;;;;11.15;nan;101002.78;5033146;28;19921;-80
2023/05/04 01:31:55;;;;;;;;;;;;;;;11.11;nan;100996.13;5045023;28;19932;-80
2023/05/04 01:34:21;;;;;;;;;;;;;;;11.12;nan;100997.78;5059964;28;19921;-80
2023/05/04 01:36:46;;;;;;;;;;;;;;;11.15;nan;100997.47;5037579;28;19936;-81
2023/05/04 01:39:12;;;;;;;;;;;;;;;11.14;nan;101000.28;5037207;28;19939;-80
2023/05/04 01:41:37;;;;;;;;;;;;;;;11.06;nan;101003.66;5048606;28;19932;-80
2023/05/04 01:44:03;;;;;;;;;;;;;;;10.96;nan;101003.66;5041134;28;19917;-80
2023/05/04 01:46:29;;;;;;;;;;;;;;;10.82;nan;101004.09;5042343;28;19951;-81
2023/05/04 01:48:54;;;;;;;;;;;;;;;10.57;nan;101003.72;5043427;28;19917;-80
2023/05/04 01:51:19;;;;;;;;;;;;;;;10.48;nan;101004.56;5052454;28;20003;-81
2023/05/04 01:53:44;;;;;;;;;;;;;;;10.35;nan;101004.00;5045427;28;19925;-80
2023/05/04 01:56:10;;;;;;;;;;;;;;;10.21;nan;101000.75;5059353;28;19917;-80
2023/05/04 01:58:35;;;;;;;;;;;;;;;10.26;nan;100997.69;5058248;28;19921;-81
2023/05/04 02:01:00;;;;;;;;;;;;;;;10.25;nan;101003.13;5055734;28;20376;-81
2023/05/04 02:03:25;;;;;;;;;;;;;;;10.28;nan;101008.16;5040582;28;19917;-80
2023/05/04 02:05:51;;;;;;;;;;;;;;;10.20;nan;101007.03;5054489;28;20246;-80
2023/05/04 02:08:16;;;;;;;;;;;;;;;10.14;nan;101009.38;5048160;28;19923;-80
2023/05/04 02:10:41;;;;;;;;;;;;;;;10.10;nan;101002.69;5033069;28;19928;-80
2023/05/04 02:13:06;;;;;;;;;;;;;;;10.10;nan;101007.97;5050393;28;19963;-80
2023/05/04 02:15:32;;;;;;;;;;;;;;;10.03;nan;101002.41;5058199;28;19972;-80
2023/05/04 02:17:57;;;;;;;;;;;;;;;9.97;nan;101002.97;5033712;28;19925;-81
2023/05/04 02:20:22;;;;;;;;;;;;;;;9.95;nan;101005.72;5039685;28;19924;-80
2023/05/04 02:22:47;;;;;;;;;;;;;;;10.02;nan;101002.56;5044257;28;19928;-81
2023/05/04 02:25:12;;;;;;;;;;;;;;;10.15;nan;101005.75;5045978;28;19928;-81
2023/05/04 02:27:37;;;;;;;;;;;;;;;10.25;nan;101001.34;5035371;28;19925;-80
2023/05/04 02:30:03;;;;;;;;;;;;;;;10.29;nan;101000.09;5026518;28;19947;-80
2023/05/04 02:32:28;;;;;;;;;;;;;;;10.23;nan;101005.09;5040265;28;19921;-81
2023/05/04 02:34:53;;;;;;;;;;;;;;;10.22;nan;100991.00;5029659;28;20292;-79
2023/05/04 02:37:19;;;;;;;;;;;;;;;10.13;nan;100989.19;5053389;28;19975;-80
2023/05/04 02:39:44;;;;;;;;;;;;;;;10.07;nan;100992.41;5056006;28;20369;-81
2023/05/04 02:42:09;;;;;;;;;;;;;;;10.03;nan;100986.53;5038167;28;19976;-79
2023/05/04 02:44:34;;;;;;;;;;;;;;;10.04;nan;100990.03;5028938;28;20003;-80
2023/05/04 02:46:59;;;;;;;;;;;;;;;10.03;nan;100991.00;5053178;28;20429;-80
2023/05/04 02:49:25;;;;;;;;;;;;;;;10.08;nan;100988.78;5042296;28;19921;-81
2023/05/04 02:51:50;;;;;;;;;;;;;;;10.07;nan;100985.31;5034300;28;19925;-81
2023/05/04 02:54:15;;;;;;;;;;;;;;;10.06;nan;100990.72;5051138;28;19928;-80
2023/05/04 02:56:40;;;;;;;;;;;;;;;10.00;nan;100987.66;5056116;28;20438;-80
2023/05/04 02:59:06;;;;;;;;;;;;;;;10.03;nan;100980.44;5048064;28;19983;-78
2023/05/04 03:01:31;;;;;;;;;;;;;;;10.08;nan;100975.56;5047373;28;19928;-80
2023/05/04 03:03:56;;;;;;;;;;;;;;;10.20;nan;100983.25;5047241;28;19936;-80
2023/05/04 03:06:21;;;;;;;;;;;;;;;10.32;nan;100980.47;5048836;28;20172;-80
2023/05/04 03:08:46;;;;;;;;;;;;;;;10.33;nan;100982.16;5048982;28;19920;-80
2023/05/04 03:11:11;;;;;;;;;;;;;;;10.34;nan;100971.44;5048013;28;19921;-81
2023/05/04 03:13:37;;;;;;;;;;;;;;;10.29;nan;100975.47;5053974;28;19921;-79
2023/05/04 03:16:03;;;;;;;;;;;;;;;10.19;nan;100976.28;5051084;28;19967;-80
2023/05/04 03:18:28;;;;;;;;;;;;;;;10.08;nan;100978.22;5052942;28;19929;-80
2023/05/04 03:20:53;;;;;;;;;;;;;;;9.99;nan;100979.88;5045236;28;19928;-80
2023/05/04 03:23:18;;;;;;;;;;;;;;;9.96;nan;100980.13;5050362;28;20061;-80
2023/05/04 03:25:45;;;;;;;;;;;;;;;10.05;nan;100970.56;5050847;28;19921;-80
2023/05/04 03:28:11;;;;;;;;;;;;;;;10.13;nan;100968.06;5053094;28;19917;-81
2023/05/04 03:30:36;;;;;;;;;;;;;;;10.22;nan;100967.22;5052615;28;19925;-81
2023/05/04 03:33:01;;;;;;;;;;;;;;;10.25;nan;100961.69;5032469;28;19971;-80
2023/05/04 03:35:26;;;;;;;;;;;;;;;10.22;nan;100969.88;5058434;28;19916;-80
2023/05/04 03:37:51;;;;;;;;;;;;;;;10.22;nan;100959.31;5040431;28;19925;-81
2023/05/04 03:40:21;;;;;;;;;;;;;;;10.13;nan;100957.47;5058915;28;20317;-82
2023/05/04 03:42:46;;;;;;;;;;;;;;;10.10;nan;100957.78;5058251;28;19976;-81
2023/05/04 03:45:11;;;;;;;;;;;;;;;10.04;nan;100951.25;5051647;28;19955;-82
2023/05/04 03:47:37;;;;;;;;;;;;;;;9.92;nan;100954.97;5055514;28;19920;-80
2023/05/04 03:50:02;;;;;;;;;;;;;;;9.82;nan;100954.97;5055119;28;19917;-82
2023/05/04 03:52:33;;;;;;;;;;;;;;;9.74;nan;100945.06;5039666;28;20568;-82
2023/05/04 03:54:58;;;;;;;;;;;;;;;9.75;nan;100949.41;5058688;28;19971;-81
2023/05/04 03:57:24;;;;;;;;;;;;;;;9.64;nan;100948.66;5037487;28;19954;-81
2023/05/04 03:59:49;;;;;;;;;;;;;;;9.52;nan;100948.78;5060082;28;19935;-81
2023/05/04 04:02:15;;;;;;;;;;;;;;;9.49;nan;100954.31;5058487;28;19917;-80
2023/05/04 04:04:40;;;;;;;;;;;;;;;9.56;nan;100947.53;5054915;28;19927;-82
2023/05/04 04:07:05;;;;;;;;;;;;;;;9.74;nan;100950.34;5022200;28;19974;-81
2023/05/04 04:09:30;;;;;;;;;;;;;;;9.93;nan;100951.34;5053453;28;19921;-81
2023/05/04 04:11:56;;;;;;;;;;;;;;;10.11;nan;100948.88;5046937;28;20559;-81
2023/05/04 04:14:22;;;;;;;;;;;;;;;10.27;nan;100946.50;5054452;28;19990;-81
2023/05/04 04:16:47;;;;;;;;;;;;;;;10.37;nan;100951.84;5033868;28;20426;-82
2023/05/04 04:19:12;;;;;;;;;;;;;;;10.39;nan;100953.38;5049261;28;20371;-81
2023/05/04 04:21:37;;;;;;;;;;;;;;;10.38;nan;100962.25;5035612;28;19932;-79
2023/05/04 04:24:02;;;;;;;;;;;;;;;10.34;nan;100950.28;5047126;28;19925;-82
2023/05/04 04:26:28;;;;;;;;;;;;;;;10.40;nan;100952.38;5051321;28;19925;-81
2023/05/04 04:28:53;;;;;;;;;;;;;;;10.42;nan;100960.19;5049952;28;19944;-80
2023/05/04 04:31:19;;;;;;;;;;;;;;;10.45;nan;100956.41;5043514;28;19925;-82
2023/05/04 04:33:44;;;;;;;;;;;;;;;10.50;nan;100962.13;5053743;28;19928;-81
2023/05/04 04:36:11;;;;;;;;;;;;;;;10.52;nan;100958.34;5053592;28;19917;-82
2023/05/04 04:38:36;;;;;;;;;;;;;;;10.55;nan;100959.88;5054484;28;19949;-81
2023/05/04 04:41:02;;;;;;;;;;;;;;;10.57;nan;100960.59;5054700;28;19921;-81
2023/05/04 04:43:27;;;;;;;;;;;;;;;10.58;nan;100955.16;5050060;28;19963;-80
2023/05/04 04:45:53;;;;;;;;;;;;;;;10.62;nan;100961.81;5052157;28;20319;-80
2023/05/04 04:48:20;;;;;;;;;;;;;;;10.72;nan;100968.91;5039688;28;19932;-80
2023/05/04 04:50:46;;;;;;;;;;;;;;;10.81;nan;100962.75;5047856;28;20000;-81
2023/05/04 04:53:11;;;;;;;;;;;;;;;10.93;nan;100968.72;5055732;28;20359;-80
2023/05/04 04:55:36;;;;;;;;;;;;;;;11.11;nan;100971.44;5053089;28;19936;-81
2023/05/04 04:58:01;;;;;;;;;;;;;;;11.20;nan;100976.72;5030843;28;19982;-81
2023/05/04 05:00:27;;;;;;;;;;;;;;;11.31;nan;100974.88;5033475;28;19927;-80
2023/05/04 05:02:53;;;;;;;;;;;;;;;11.41;nan;100975.66;5035848;28;19968;-81
2023/05/04 05:05:18;;;;;;;;;;;;;;;11.55;nan;100977.00;5054601;28;20539;-80
2023/05/04 05:07:43;;;;;;;;;;;;;;;11.64;nan;100968.16;5053914;28;20461;-80
2023/05/04 05:10:08;;;;;;;;;;;;;;;11.75;nan;100985.66;5046949;28;19928;-80
2023/05/04 05:12:34;;;;;;;;;;;;;;;11.82;nan;100989.38;5050325;28;19968;-80
2023/05/04 05:14:59;;;;;;;;;;;;;;;11.98;nan;100986.94;5050189;28;20066;-80
2023/05/04 05:17:24;;;;;;;;;;;;;;;12.09;nan;100989.41;5028157;28;19944;-80
2023/05/04 05:19:50;;;;;;;;;;;;;;;12.20;nan;100993.63;5054515;28;19967;-81
2023/05/04 05:22:15;;;;;;;;;;;;;;;12.35;nan;100998.41;5054373;28;19924;-80
2023/05/04 05:24:40;;;;;;;;;;;;;;;12.37;nan;100997.28;5053681;28;20458;-81
2023/05/04 05:27:05;;;;;;;;;;;;;;;12.55;nan;101002.56;5030949;28;19931;-80
2023/05/04 05:29:31;;;;;;;;;;;;;;;12.71;nan;100996.56;5047829;28;19921;-81
2023/05/04 05:31:56;;;;;;;;;;;;;;;12.79;nan;100993.97;5052798;28;19929;-81
2023/05/04 05:34:21;;;;;;;;;;;;;;;12.78;nan;100997.63;5048694;28;20012;-81
2023/05/04 05:36:47;;;;;;;;;;;;;;;12.86;nan;100996.84;5051464;28;19914;-80
2023/05/04 05:39:13;;;;;;;;;;;;;;;12.91;nan;101005.16;5033769;28;20020;-80
2023/05/04 05:41:38;;;;;;;;;;;;;;;13.08;nan;101000.81;5059828;28;20376;-81
2023/05/04 05:44:05;;;;;;;;;;;;;;;13.21;nan;101003.88;5057449;28;19975;-80
2023/05/04 05:46:30;;;;;;;;;;;;;;;13.38;nan;101000.34;5034425;28;20404;-82
2023/05/04 05:48:55;;;;;;;;;;;;;;;13.50;nan;100998.25;5048048;28;19921;-81
2023/05/04 05:51:20;;;;;;;;;;;;;;;13.65;nan;100993.16;5054618;28;20415;-81
2023/05/04 05:53:46;;;;;;;;;;;;;;;13.69;nan;100988.38;5051051;28;19928;-80
2023/05/04 05:56:12;;;;;;;;;;;;;;;14.03;nan;100985.63;5058674;28;19924;-80
2023/05/04 05:58:37;;;;;;;;;;;;;;;14.26;nan;100988.50;5053097;28;20391;-80
2023/05/04 06:01:02;;;;;;;;;;;;;;;14.36;nan;100993.66;5041941;28;19921;-81
2023/05/04 06:03:28;;;;;;;;;;;;;;;14.63;nan;100992.53;5057345;28;19932;-81
2023/05/04 06:05:53;;;;;;;;;;;;;;;14.92;nan;100986.69;5056343;28;19948;-81
2023/05/04 06:08:19;;;;;;;;;;;;;;;15.09;nan;100987.50;5046636;28;19932;-81
2023/05/04 06:10:44;;;;;;;;;;;;;;;14.95;nan;100986.34;5051298;28;19928;-80
2023/05/04 06:13:09;;;;;;;;;;;;;;;14.73;nan;100985.22;5044894;28;19925;-81
2023/05/04 06:15:35;;;;;;;;;;;;;;;14.69;nan;100986.53;5039310;28;19921;-82
2023/05/04 06:18:00;;;;;;;;;;;;;;;14.71;nan;100973.06;5051582;28;19925;-79
2023/05/04 06:20:26;;;;;;;;;;;;;;;14.78;nan;100980.22;5052114;28;19951;-79
2023/05/04 06:22:51;;;;;;;;;;;;;;;14.91;nan;100978.88;5055910;28;19925;-79
2023/05/04 06:25:16;;;;;;;;;;;;;;;15.31;nan;100977.94;5056863;28;19927;-79
2023/05/04 06:27:41;;;;;;;;;;;;;;;15.72;nan;100977.78;5030943;28;19964;-80
2023/05/04 06:30:07;;;;;;;;;;;;;;;16.30;nan;100973.78;5031923;28;19947;-79
2023/05/04 06:32:32;;;;;;;;;;;;;;;16.84;nan;100974.66;5026255;28;21737;-79
2023/05/04 06:34:58;;;;;;;;;;;;;;;17.15;nan;100974.50;5052495;28;19948;-80
2023/05/04 06:37:23;;;;;;;;;;;;;;;17.30;nan;100977.19;5027636;28;19917;-79
2023/05/04 06:39:49;;;;;;;;;;;;;;;17.59;nan;100987.88;5030154;28;20301;-79
2023/05/04 06:42:14;;;;;;;;;;;;;;;18.20;nan;100978.69;5030263;28;20530;-80
2023/05/04 06:44:40;;;;;;;;;;;;;;;18.87;nan;100974.75;5047925;28;19948;-79
2023/05/04 06:47:08;;;;;;;;;;;;;;;19.05;nan;100972.41;5042744;28;19917;-79
2023/05/04 06:49:33;;;;;;;;;;;;;;;18.94;nan;100978.31;5050477;28;19960;-79
2023/05/04 06:51:59;;;;;;;;;;;;;;;19.04;nan;100976.13;5055077;28;20311;-80
2023/05/04 06:54:25;;;;;;;;;;;;;;;19.34;nan;100981.22;5025650;28;19917;-80
2023/05/04 06:56:50;;;;;;;;;;;;;;;19.64;nan;100972.88;5032570;28;19929;-80
2023/05/04 06:59:18;;;;;;;;;;;;;;;19.83;nan;100980.25;5032362;28;20015;-84
2023/05/04 07:01:44;;;;;;;;;;;;;;;20.03;nan;100980.28;5033171;28;19942;-79
2023/05/04 07:04:09;;;;;;;;;;;;;;;19.93;nan;100983.34;5050614;28;20004;-79
2023/05/04 07:06:34;;;;;;;;;;;;;;;19.75;nan;100983.09;5049320;28;20449;-79
2023/05/04 07:09:00;;;;;;;;;;;;;;;19.91;nan;100993.47;5053497;28;19941;-79
2023/05/04 07:11:26;;;;;;;;;;;;;;;20.18;nan;100981.97;5047945;28;20034;-79
2023/05/04 07:13:51;;;;;;;;;;;;;;;20.33;nan;100988.81;5042563;28;19997;-79
2023/05/04 07:16:17;;;;;;;;;;;;;;;20.49;nan;100987.56;5032398;28;19963;-79
2023/05/04 07:18:42;;;;;;;;;;;;;;;20.92;nan;100986.34;5047202;28;20512;-79
2023/05/04 07:21:11;;;;;;;;;;;;;;;20.95;nan;100983.22;5029603;28;19954;-80
2023/05/04 07:23:36;;;;;;;;;;;;;;;21.23;nan;100980.28;5027762;28;19955;-79
2023/05/04 07:26:01;;;;;;;;;;;;;;;21.54;nan;100976.06;5057494;28;19921;-79
2023/05/04 07:28:26;;;;;;;;;;;;;;;21.69;nan;100973.97;5037387;28;20527;-78
2023/05/04 07:30:52;;;;;;;;;;;;;;;21.32;nan;100973.63;5034158;28;19928;-80
2023/05/04 07:33:17;;;;;;;;;;;;;;;21.36;nan;100969.50;5047028;28;21516;-80
2023/05/04 07:35:42;;;;;;;;;;;;;;;21.16;nan;100955.28;5032374;28;20521;-80
2023/05/04 07:38:08;;;;;;;;;;;;;;;21.17;nan;100955.06;5025878;28;19932;-80
2023/05/04 07:40:33;;;;;;;;;;;;;;;21.51;nan;100952.28;5026319;28;19924;-80
2023/05/04 07:42:58;;;;;;;;;;;;;;;21.79;nan;100958.16;5049244;28;19921;-80
2023/05/04 07:45:23;;;;;;;;;;;;;;;21.97;nan;100948.53;5055714;28;19924;-81
2023/05/04 07:47:48;;;;;;;;;;;;;;;22.15;nan;100961.25;5045830;28;19920;-80
2023/05/04 07:50:14;;;;;;;;;;;;;;;22.76;nan;100962.44;5045132;28;19920;-81
2023/05/04 07:52:39;;;;;;;;;;;;;;;22.74;nan;100951.91;5051033;28;19924;-80
2023/05/04 07:55:04;;;;;;;;;;;;;;;22.97;nan;100947.72;5027798;28;19927;-80
2023/05/04 07:57:31;;;;;;;;;;;;;;;22.90;nan;100945.91;5041259;28;20315;-80
2023/05/04 07:59:56;;;;;;;;;;;;;;;23.22;nan;100950.41;5053683;28;20020;-80
2023/05/04 08:02:21;;;;;;;;;;;;;;;23.57;nan;100952.44;5024473;28;19917;-80
2023/05/04 08:04:47;;;;;;;;;;;;;;;23.58;nan;100946.03;5053690;28;19925;-81
2023/05/04 08:07:15;;;;;;;;;;;;;;;23.69;nan;100951.47;5036209;28;20293;-80
2023/05/04 08:09:40;;;;;;;;;;;;;;;23.44;nan;100951.56;5052625;28;20339;-81
2023/05/04 08:12:06;;;;;;;;;;;;;;;23.44;nan;100945.34;5054433;28;19978;-80
2023/05/04 08:14:32;;;;;;;;;;;;;;;23.25;nan;100941.84;5052786;28;19920;-80
2023/05/04 08:16:57;;;;;;;;;;;;;;;23.31;nan;100933.69;5033059;28;19925;-80
2023/05/04 08:19:23;;;;;;;;;;;;;;;23.60;nan;100939.34;5044114;28;19944;-80
2023/05/04 08:21:48;;;;;;;;;;;;;;;23.82;nan;100933.47;5045337;28;19929;-80
2023/05/04 08:24:13;;;;;;;;;;;;;;;23.84;nan;100936.78;5031002;28;19928;-80
2023/05/04 08:26:39;;;;;;;;;;;;;;;23.77;nan;100930.63;5056316;28;19999;-80
2023/05/04 08:29:06;;;;;;;;;;;;;;;24.26;nan;100926.75;5043600;28;19929;-80
2023/05/04 08:31:31;;;;;;;;;;;;;;;24.94;nan;100924.56;5034004;28;19924;-80
2023/05/04 08:33:56;;;;;;;;;;;;;;;25.14;nan;100916.03;5048686;28;19929;-80
2023/05/04 08:36:21;;;;;;;;;;;;;;;25.20;nan;100924.06;5048903;28;19917;-80
2023/05/04 08:38:47;;;;;;;;;;;;;;;25.16;nan;100916.63;5034680;28;20442;-80
2023/05/04 08:41:13;;;;;;;;;;;;;;;25.82;nan;100909.00;5050086;28;19917;-80
2023/05/04 08:43:39;;;;;;;;;;;;;;;26.19;nan;100905.84;5036858;28;19924;-81
2023/05/04 08:46:05;;;;;;;;;;;;;;;26.54;nan;100913.75;5026529;28;20008;-80
2023/05/04 08:48:31;;;;;;;;;;;;;;;26.54;nan;100913.75;5041468;28;19925;-81
2023/05/04 08:50:57;;;;;;;;;;;;;;;26.16;nan;100895.50;5030552;28;19967;-80
2023/05/04 08:53:22;;;;;;;;;;;;;;;25.87;nan;100900.16;5036264;28;19917;-81
2023/05/04 08:55:48;;;;;;;;;;;;;;;25.82;nan;100895.44;5047072;28;20300;-81
2023/05/04 08:58:15;;;;;;;;;;;;;;;26.09;nan;100894.84;5054594;28;20008;-81
2023/05/04 09:00:42;;;;;;;;;;;;;;;26.36;nan;100890.41;5032038;28;19949;-81
2023/05/04 09:03:09;;;;;;;;;;;;;;;26.31;nan;100897.63;5056401;28;19921;-82
2023/05/04 09:05:34;;;;;;;;;;;;;;;26.70;nan;100884.97;5055463;28;19921;-83
2023/05/04 09:08:00;;;;;;;;;;;;;;;27.07;nan;100887.84;5049660;28;20008;-81
2023/05/04 09:10:25;;;;;;;;;;;;;;;27.57;nan;100890.63;5038057;28;20040;-83
2023/05/04 09:12:54;;;;;;;;;;;;;;;27.66;nan;100891.81;5051653;28;19920;-83
2023/05/04 09:15:20;;;;;;;;;;;;;;;28.34;nan;100879.34;5054638;28;19920;-83
2023/05/04 09:18:00;;;;;;;;;;;;;;;28.78;nan;100876.34;5053820;28;19921;-82
2023/05/04 09:20:25;;;;;;;;;;;;;;;29.43;nan;100878.78;5050411;28;20012;-82
2023/05/04 09:23:07;;;;;;;;;;;;;;;28.94;nan;100871.81;5048721;28;20397;-81
2023/05/04 09:25:33;;;;;;;;;;;;;;;28.02;nan;100876.66;5035893;28;20447;-82
2023/05/04 09:27:58;;;;;;;;;;;;;;;28.11;nan;100874.28;5051594;28;19921;-82
2023/05/04 09:30:24;;;;;;;;;;;;;;;28.43;nan;100866.06;5054112;28;20395;-81
2023/05/04 09:32:49;;;;;;;;;;;;;;;28.55;nan;100871.34;5052246;28;19920;-81
2023/05/04 09:35:16;;;;;;;;;;;;;;;28.92;nan;100860.38;5033493;28;20631;-82
2023/05/04 09:37:42;;;;;;;;;;;;;;;29.27;nan;100864.34;5058374;28;19928;-82
2023/05/04 09:40:07;;;;;;;;;;;;;;;29.30;nan;100861.06;5057213;28;19921;-82
2023/05/04 09:42:33;;;;;;;;;;;;;;;29.58;nan;100851.59;5050990;28;19989;-82
2023/05/04 09:45:06;;;;;;;;;;;;;;;30.18;nan;100846.41;5035274;28;20039;-79
2023/05/04 09:47:32;;;;;;;;;;;;;;;29.94;nan;100846.16;5056772;28;19924;-82
2023/05/04 09:49:57;;;;;;;;;;;;;;;30.47;nan;100854.84;5019406;28;20023;-82
2023/05/04 09:52:24;;;;;;;;;;;;;;;30.87;nan;100846.81;5053224;28;19952;-82
2023/05/04 09:54:49;;;;;;;;;;;;;;;30.51;nan;100840.63;5048235;28;19967;-82
2023/05/04 09:57:15;;;;;;;;;;;;;;;30.83;nan;100842.97;5039865;28;19921;-82
2023/05/04 09:59:40;;;;;;;;;;;;;;;31.35;nan;100836.16;5022567;28;20012;-82
2023/05/04 10:02:11;;;;;;;;;;;;;;;31.35;nan;100836.16;5054071;28;19988;-81
2023/05/04 10:04:37;;;;;;;;;;;;;;;31.52;nan;100831.16;5048626;28;19936;-80
2023/05/04 10:07:02;;;;;;;;;;;;;;;31.65;nan;100828.84;5038481;28;19921;-81
2023/05/04 10:09:28;;;;;;;;;;;;;;;31.69;nan;100835.41;5053986;28;19925;-80
2023/05/04 10:11:55;;;;;;;;;;;;;;;31.57;nan;100826.75;5054350;28;19928;-81
2023/05/04 10:14:21;;;;;;;;;;;;;;;31.04;nan;100830.88;5054936;28;20023;-80
2023/05/04 10:17:12;;;;;;;;;;;;;;;30.46;nan;100825.94;5054637;28;19960;-80
2023/05/04 10:19:56;;;;;;;;;;;;;;;30.60;nan;100825.31;5025754;28;19929;-81
2023/05/04 10:22:23;;;;;;;;;;;;;;;30.43;nan;100825.66;5043228;28;19917;-80
2023/05/04 10:24:58;;;;;;;;;;;;;;;30.50;nan;100817.97;5049099;28;20003;-80
2023/05/04 10:27:50;;;;;;;;;;;;;;;30.65;nan;100817.94;5057619;28;19924;-81
2023/05/04 10:30:17;;;;;;;;;;;;;;;30.15;nan;100816.97;5051447;28;19921;-80
2023/05/04 10:32:43;;;;;;;;;;;;;;;30.33;nan;100812.84;5056690;28;19927;-80
2023/05/04 10:35:08;;;;;;;;;;;;;;;30.52;nan;100815.00;5030551;28;19920;-80
2023/05/04 10:37:36;;;;;;;;;;;;;;;30.34;nan;100811.75;5054390;28;19931;-80
2023/05/04 10:40:01;;;;;;;;;;;;;;;30.44;nan;100805.47;5032147;28;20412;-80
2023/05/04 10:42:27;;;;;;;;;;;;;;;30.55;nan;100801.59;5045947;28;19959;-81
2023/05/04 10:44:53;;;;;;;;;;;;;;;31.28;nan;100802.88;5029543;28;20621;-81
2023/05/04 10:47:36;;;;;;;;;;;;;;;32.19;nan;100803.22;5051616;28;19939;-81
2023/05/04 10:50:09;;;;;;;;;;;;;;;32.54;nan;100798.50;5034830;28;19924;-81
2023/05/04 10:52:45;;;;;;;;;;;;;;;32.49;nan;100793.03;5048020;28;19927;-80
2023/05/04 10:55:10;;;;;;;;;;;;;;;32.70;nan;100796.34;5053214;28;19921;-80
2023/05/04 10:57:45;;;;;;;;;;;;;;;32.42;nan;100787.94;5056297;28;19921;-80
2023/05/04 11:00:11;;;;;;;;;;;;;;;33.18;nan;100785.28;5050673;28;19925;-79
2023/05/04 11:02:39;;;;;;;;;;;;;;;33.67;nan;100774.94;5051045;28;19921;-85
2023/05/04 11:05:05;;;;;;;;;;;;;;;34.05;nan;100772.88;5029434;28;19927;-85
2023/05/04 11:07:37;;;;;;;;;;;;;;;34.58;nan;100766.06;5044062;28;19980;-86
2023/05/04 11:10:03;;;;;;;;;;;;;;;34.97;nan;100762.75;5057905;28;19928;-88
2023/05/04 11:12:30;;;;;;;;;;;;;;;34.64;nan;100762.13;5063522;28;19921;-88
2023/05/04 11:15:05;;;;;;;;;;;;;;;33.72;nan;100752.91;5040033;23;19926;-86
2023/05/04 11:17:30;;;;;;;;;;;;;;;33.85;nan;100738.41;5033640;28;19929;-90
2023/05/04 11:19:55;;;;;;;;;;;;;;;33.90;nan;100746.53;5029617;28;20285;-86
2023/05/04 11:22:21;;;;;;;;;;;;;;;34.43;nan;100739.75;5032265;28;20005;-85
2023/05/04 11:24:47;;;;;;;;;;;;;;;33.93;nan;100745.94;5008210;28;19925;-86
2023/05/04 11:27:22;;;;;;;;;;;;;;;33.92;nan;100736.09;5023037;28;19932;-88
2023/05/04 11:29:53;;;;;;;;;;;;;;;34.07;nan;100729.47;5009722;28;19992;-89
2023/05/04 11:32:18;;;;;;;;;;;;;;;33.54;nan;100729.91;5018255;28;20412;-89
2023/05/04 11:34:47;;;;;;;;;;;;;;;33.28;nan;100732.28;5020921;28;19925;-87
2023/05/04 11:37:12;;;;;;;;;;;;;;;31.73;nan;100725.16;5026534;28;19952;-84
2023/05/04 11:39:37;;;;;;;;;;;;;;;32.52;nan;100719.38;5008501;28;19925;-86
2023/05/04 11:42:08;;;;;;;;;;;;;;;33.51;nan;100720.34;5012937;28;20376;-89
2023/05/04 11:44:34;;;;;;;;;;;;;;;34.23;nan;100719.84;5018692;28;19998;-89
2023/05/04 11:47:00;;;;;;;;;;;;;;;34.37;nan;100717.09;5013409;28;19925;-89
2023/05/04 11:49:26;;;;;;;;;;;;;;;34.70;nan;100714.19;5024882;28;19948;-88
2023/05/04 11:51:51;;;;;;;;;;;;;;;34.38;nan;100704.19;5037155;28;19994;-88
2023/05/04 11:54:20;;;;;;;;;;;;;;;33.65;nan;100700.38;5012984;28;19920;-90
2023/05/04 11:56:46;;;;;;;;;;;;;;;33.17;nan;100701.47;5017063;28;19925;-87
2023/05/04 11:59:11;;;;;;;;;;;;;;;33.48;nan;100700.94;5112532;23;19935;-89
2023/05/04 12:01:39;;;;;;;;;;;;;;;34.04;nan;100695.22;5031848;28;19912;-89
2023/05/04 12:04:05;;;;;;;;;;;;;;;34.22;nan;100696.25;5013251;28;19960;-88
2023/05/04 12:06:32;;;;;;;;;;;;;;;33.33;nan;100691.06;5038078;28;19929;-85
2023/05/04 12:09:01;;;;;;;;;;;;;;;33.00;nan;100689.09;5021290;28;19934;-89
2023/05/04 12:11:27;;;;;;;;;;;;;;;32.52;nan;100683.00;5032947;28;19989;-89
2023/05/04 12:14:05;;;;;;;;;;;;;;;32.18;nan;100678.47;5036718;28;19964;-88
2023/05/04 12:16:31;;;;;;;;;;;;;;;31.30;nan;100689.47;5018466;28;19921;-88
2023/05/04 12:19:09;;;;;;;;;;;;;;;30.39;nan;100678.06;5041491;23;19925;-86
2023/05/04 12:21:34;;;;;;;;;;;;;;;30.11;nan;100671.34;5013387;28;19968;-87
2023/05/04 12:24:00;;;;;;;;;;;;;;;29.74;nan;100682.63;5018857;28;19926;-88
2023/05/04 12:26:26;;;;;;;;;;;;;;;29.64;nan;100675.25;5020508;28;19925;-86
2023/05/04 12:28:51;;;;;;;;;;;;;;;29.82;nan;100669.25;4997407;28;20072;-87
2023/05/04 12:31:17;;;;;;;;;;;;;;;29.79;nan;100672.50;4998385;28;20427;-85
2023/05/04 12:33:42;;;;;;;;;;;;;;;29.83;nan;100668.16;4992252;28;19922;-86
2023/05/04 12:36:07;;;;;;;;;;;;;;;29.58;nan;100663.56;4986562;28;20590;-88
2023/05/04 12:38:33;;;;;;;;;;;;;;;29.31;nan;100663.03;5013030;28;19975;-87
2023/05/04 12:41:01;;;;;;;;;;;;;;;28.91;nan;100656.47;5006268;28;19925;-87
2023/05/04 12:43:26;;;;;;;;;;;;;;;28.57;nan;100671.38;4991504;28;19961;-89
2023/05/04 12:45:51;;;;;;;;;;;;;;;28.29;nan;100661.75;4988589;28;19945;-87
2023/05/04 12:48:17;;;;;;;;;;;;;;;27.82;nan;100665.31;4995491;28;19926;-87
2023/05/04 12:50:43;;;;;;;;;;;;;;;27.68;nan;100659.53;4973594;28;19922;-85
2023/05/04 12:53:08;;;;;;;;;;;;;;;27.69;nan;100655.72;4992209;28;19926;-85